Time;durP1;ratioP1;P1;durP2;ratioP2;P2;SDS_P1;SDS_P2;PMS_P1;PMS_P2;Temp;Humidity;BMP_temperature;BMP_pressure;BME280_temperature;BME280_humidity;BME280_pressure;Samples;Min_cycle;Max_cycle;Signal;HPM_P1;HPM_P2
2022/12/26 00:01:10;;;;;;;26.17;19.05;;;;;;;10.20;100.00;101060.41;5060670;28;20507;-50
2022/12/26 00:03:35;;;;;;;25.60;18.52;;;;;;;10.18;100.00;101058.59;5067764;28;20032;-49
2022/12/26 00:06:01;;;;;;;27.02;19.23;;;;;;;10.17;100.00;101050.00;5065049;28;20020;-50
2022/12/26 00:08:26;;;;;;;29.00;20.67;;;;;;;10.13;100.00;101058.47;5064320;28;20040;-52
2022/12/26 00:10:51;;;;;;;32.55;21.55;;;;;;;10.17;100.00;101049.13;5058555;28;20470;-53
2022/12/26 00:13:17;;;;;;;31.38;22.33;;;;;;;10.16;100.00;101048.25;5062844;28;20490;-52
2022/12/26 00:15:42;;;;;;;28.55;21.08;;;;;;;10.15;100.00;101053.38;5067564;28;20056;-49
2022/12/26 00:18:08;;;;;;;30.27;21.27;;;;;;;10.17;100.00;101059.41;5060851;28;20041;-48
2022/12/26 00:20:33;;;;;;;30.67;23.25;;;;;;;10.19;100.00;101057.75;5067062;28;20053;-50
2022/12/26 00:22:59;;;;;;;30.23;21.48;;;;;;;10.22;100.00;101065.59;5070839;28;20064;-50
2022/12/26 00:25:24;;;;;;;31.88;22.55;;;;;;;10.21;100.00;101063.84;5071185;28;20037;-51
2022/12/26 00:27:50;;;;;;;32.20;22.42;;;;;;;10.19;100.00;101083.44;5076248;28;20123;-47
2022/12/26 00:30:15;;;;;;;30.88;21.90;;;;;;;10.19;100.00;101083.44;5068227;28;20029;-52
2022/12/26 00:32:41;;;;;;;29.27;22.08;;;;;;;10.16;100.00;101097.09;5072824;28;20102;-49
2022/12/26 00:35:06;;;;;;;30.63;22.00;;;;;;;10.17;100.00;101109.09;5071743;28;20389;-52
2022/12/26 00:37:32;;;;;;;30.60;22.92;;;;;;;10.20;100.00;101100.66;5069539;28;20039;-52
2022/12/26 00:39:57;;;;;;;32.83;22.88;;;;;;;10.19;100.00;101096.31;5074342;28;20054;-48
2022/12/26 00:42:23;;;;;;;30.23;22.33;;;;;;;10.19;100.00;101106.59;5072106;28;20024;-52
2022/12/26 00:44:48;;;;;;;30.17;22.80;;;;;;;10.21;100.00;101098.13;5073729;28;20084;-48
2022/12/26 00:47:13;;;;;;;32.92;23.27;;;;;;;10.20;100.00;101098.94;5069226;28;20077;-49
2022/12/26 00:49:39;;;;;;;32.38;23.88;;;;;;;10.19;100.00;101107.50;5070751;28;20874;-51
2022/12/26 00:52:04;;;;;;;32.92;24.42;;;;;;;10.15;100.00;101095.34;5068349;28;20032;-44
2022/12/26 00:54:29;;;;;;;32.60;24.40;;;;;;;10.15;100.00;101100.47;5076956;28;20085;-50
2022/12/26 00:56:55;;;;;;;33.30;24.42;;;;;;;10.16;100.00;101111.63;5070587;28;20036;-52
2022/12/26 00:59:20;;;;;;;34.33;24.52;;;;;;;10.18;100.00;101110.84;5078015;28;20028;-52
2022/12/26 01:01:45;;;;;;;33.60;25.88;;;;;;;10.16;100.00;101094.50;5066719;28;20114;-53
2022/12/26 01:04:11;;;;;;;33.33;25.27;;;;;;;10.15;100.00;101097.91;5070009;28;20039;-53
2022/12/26 01:06:36;;;;;;;32.70;25.52;;;;;;;10.16;100.00;101085.94;5058862;28;20047;-49
2022/12/26 01:09:01;;;;;;;34.65;24.90;;;;;;;10.17;100.00;101088.56;5061453;28;20024;-49
2022/12/26 01:11:39;;;;;;;31.88;24.23;;;;;;;10.17;100.00;101096.25;5069339;28;20042;-49
2022/12/26 01:14:14;;;;;;;31.00;23.98;;;;;;;10.17;100.00;101103.09;5066671;28;20028;-43
2022/12/26 01:16:41;;;;;;;30.98;23.55;;;;;;;10.14;100.00;101105.59;5068588;28;20166;-51
2022/12/26 01:19:08;;;;;;;32.25;23.08;;;;;;;10.14;100.00;101111.59;5067988;28;20028;-52
2022/12/26 01:21:33;;;;;;;29.48;22.67;;;;;;;10.15;100.00;101120.16;5070896;28;20554;-52
2022/12/26 01:23:59;;;;;;;29.98;23.50;;;;;;;10.15;100.00;101125.31;5062179;28;20066;-52
2022/12/26 01:26:25;;;;;;;31.25;24.08;;;;;;;10.15;100.00;101110.75;5064784;28;20073;-46
2022/12/26 01:28:51;;;;;;;31.10;23.52;;;;;;;10.16;100.00;101101.34;5062386;28;20071;-49
2022/12/26 01:31:17;;;;;;;31.48;23.52;;;;;;;10.16;100.00;101099.66;5068579;28;20029;-52
2022/12/26 01:33:43;;;;;;;30.13;22.98;;;;;;;10.14;100.00;101103.88;5070104;28;20036;-52
2022/12/26 01:36:08;;;;;;;32.33;23.88;;;;;;;10.14;100.00;101113.28;5065676;28;20070;-52
2022/12/26 01:38:34;;;;;;;32.75;23.42;;;;;;;10.12;100.00;101108.06;5063971;28;20028;-52
2022/12/26 01:41:15;;;;;;;32.42;23.95;;;;;;;10.13;100.00;101107.28;5068255;28;20107;-52
2022/12/26 01:43:51;;;;;;;31.27;23.42;;;;;;;10.15;100.00;101108.19;5065847;28;20046;-48
2022/12/26 01:46:19;;;;;;;29.08;22.05;;;;;;;10.14;100.00;101116.72;5068176;28;20570;-47
2022/12/26 01:48:45;;;;;;;30.15;22.38;;;;;;;10.11;100.00;101111.47;5062338;28;20941;-52
2022/12/26 01:51:13;;;;;;;27.52;20.92;;;;;;;10.08;100.00;101116.53;5066504;28;20036;-49
2022/12/26 01:53:44;;;;;;;28.23;20.70;;;;;;;10.07;100.00;101113.88;5060745;28;20024;-52
2022/12/26 01:56:21;;;;;;;28.08;20.40;;;;;;;10.09;100.00;101109.69;5064910;28;20439;-52
2022/12/26 01:59:05;;;;;;;28.33;20.73;;;;;;;10.08;100.00;101118.22;5068470;28;20036;-52
2022/12/26 02:01:33;;;;;;;25.60;19.73;;;;;;;10.06;100.00;101118.16;5064504;28;20025;-45
2022/12/26 02:06:48;;;;;;;27.17;19.92;;;;;;;10.07;100.00;101119.00;5066633;28;20047;-51
2022/12/26 02:09:15;;;;;;;25.13;19.08;;;;;;;10.06;100.00;101115.56;5069391;28;20371;-52
2022/12/26 02:11:46;;;;;;;27.98;20.77;;;;;;;10.07;100.00;101114.78;5069267;28;20473;-50
2022/12/26 02:14:11;;;;;;;28.15;20.60;;;;;;;10.04;100.00;101122.38;5065104;28;20661;-50
2022/12/26 02:16:38;;;;;;;28.10;20.80;;;;;;;10.05;100.00;101118.09;5072072;28;20028;-51
2022/12/26 02:19:19;;;;;;;28.15;21.45;;;;;;;10.05;100.00;101121.53;5069187;28;20028;-50
2022/12/26 02:22:03;;;;;;;27.85;20.75;;;;;;;10.10;100.00;101114.00;5069556;28;20044;-46
2022/12/26 02:24:50;;;;;;;26.90;20.88;;;;;;;10.09;100.00;101128.53;5063474;28;20032;-44
2022/12/26 02:27:45;;;;;;;29.50;21.13;;;;;;;10.09;100.00;101120.84;5071550;28;20118;-52
2022/12/26 02:30:22;;;;;;;28.25;21.02;;;;;;;10.10;100.00;101124.28;5064592;28;20155;-53
2022/12/26 02:33:06;;;;;;;28.67;21.50;;;;;;;10.07;100.00;101121.59;5068972;28;20081;-50
2022/12/26 02:35:43;;;;;;;28.48;22.08;;;;;;;10.10;100.00;101121.72;5067634;28;20070;-47
2022/12/26 02:38:33;;;;;;;27.38;21.55;;;;;;;10.10;100.00;101116.56;5067914;28;20052;-50
2022/12/26 02:41:22;;;;;;;25.17;21.15;;;;;;;10.05;100.00;101116.41;5068206;28;20102;-51
2022/12/26 02:43:56;;;;;;;26.42;20.27;;;;;;;10.09;100.00;101123.41;5065511;28;20041;-51
2022/12/26 02:49:29;;;;;;;24.10;19.17;;;;;;;10.07;100.00;101119.00;5074752;28;20549;-51
2022/12/26 03:15:05;;;;;;;19.52;17.42;;;;;;;10.09;100.00;101118.25;5064964;28;20098;-52
2022/12/26 03:17:39;;;;;;;;;;;;;;;10.19;100.00;101125.47;5060705;28;20123;-52
2022/12/26 03:20:26;;;;;;;19.73;17.08;;;;;;;10.11;100.00;101126.03;5071590;28;19912;-43
2022/12/26 03:22:56;;;;;;;23.58;17.40;;;;;;;10.05;100.00;101134.38;5067968;28;20493;-52
2022/12/26 03:28:21;;;;;;;16.98;15.18;;;;;;;10.02;100.00;101123.16;5061756;28;20044;-51
2022/12/26 03:30:49;;;;;;;17.00;15.23;;;;;;;10.01;100.00;101114.56;5067286;28;20028;-51
2022/12/26 03:36:01;;;;;;;14.88;12.57;;;;;;;10.00;100.00;101104.22;5061253;28;20096;-43
2022/12/26 03:38:37;;;;;;;13.77;12.38;;;;;;;10.04;100.00;101099.25;5062015;28;20024;-49
2022/12/26 04:20:07;;;;;;;7.90;7.10;;;;;;;9.94;100.00;101171.66;5066541;28;20127;-51
2022/12/26 04:45:14;;;;;;;7.03;5.63;;;;;;;9.80;100.00;101147.19;5064828;28;20087;-51
2022/12/26 04:50:10;;;;;;;6.40;5.55;;;;;;;9.79;100.00;101151.47;5075388;28;20066;-51
2022/12/26 04:50:25;;;;;;;5.88;5.28;;;;;;;9.82;100.00;101137.84;5066483;28;20065;-53
2022/12/26 04:53:00;;;;;;;6.28;5.30;;;;;;;9.81;100.00;101130.97;5065474;28;20037;-49
2022/12/26 04:55:31;;;;;;;6.20;4.95;;;;;;;9.81;100.00;101133.53;5070947;28;20044;-52
2022/12/26 04:57:57;;;;;;;4.93;4.43;;;;;;;9.81;100.00;101136.97;5069624;28;20040;-49
2022/12/26 05:00:24;;;;;;;5.22;4.60;;;;;;;9.81;100.00;101129.28;5067526;28;22011;-45
2022/12/26 05:11:30;;;;;;;7.22;4.80;;;;;;;9.78;100.00;101151.41;5064756;28;20507;-49
2022/12/26 05:13:57;;;;;;;5.47;4.72;;;;;;;9.72;100.00;101140.94;5067442;28;20652;-49
2022/12/26 05:30:21;;;;;;;6.88;5.30;;;;;;;9.66;100.00;101157.84;5069443;28;20044;-51
2022/12/26 05:35:31;;;;;;;6.25;5.30;;;;;;;9.65;100.00;101140.72;5070406;28;20063;-52
2022/12/26 05:37:56;;;;;;;6.68;5.82;;;;;;;9.65;100.00;101144.97;5071587;28;20544;-46
2022/12/26 05:40:22;;;;;;;8.48;5.70;;;;;;;9.66;100.00;101137.31;5065341;28;20054;-50
2022/12/26 05:42:47;;;;;;;6.60;5.05;;;;;;;9.67;100.00;101138.19;5058919;28;20044;-51
2022/12/26 05:45:12;;;;;;;6.93;5.55;;;;;;;9.67;100.00;101131.34;5069961;28;20121;-52
2022/12/26 05:47:38;;;;;;;7.82;5.28;;;;;;;9.67;100.00;101122.78;5071213;28;20036;-51
2022/12/26 05:50:04;;;;;;;6.80;5.22;;;;;;;9.66;100.00;101116.78;5072651;28;20078;-52
2022/12/26 05:52:29;;;;;;;6.03;5.00;;;;;;;9.64;100.00;101113.25;5072974;28;20436;-51
2022/12/26 05:54:54;;;;;;;5.95;4.78;;;;;;;9.65;100.00;101117.59;5071042;28;20033;-52
2022/12/26 05:57:20;;;;;;;6.45;5.20;;;;;;;9.63;100.00;101111.50;5069468;28;20549;-46
2022/12/26 05:59:45;;;;;;;7.57;4.97;;;;;;;9.63;100.00;101111.50;5067318;28;20583;-52
2022/12/26 06:02:10;;;;;;;6.20;4.95;;;;;;;9.64;100.00;101112.38;5067286;28;20452;-49
2022/12/26 06:04:36;;;;;;;5.78;4.93;;;;;;;9.64;100.00;101112.38;5070874;28;20447;-52
2022/12/26 06:07:02;;;;;;;6.97;4.75;;;;;;;9.63;100.00;101111.50;5069100;28;20104;-51
2022/12/26 06:09:27;;;;;;;6.68;4.90;;;;;;;9.62;100.00;101114.91;5066295;28;20060;-53
2022/12/26 06:11:52;;;;;;;6.57;4.82;;;;;;;9.62;100.00;101124.31;5072856;28;20485;-50
2022/12/26 06:14:18;;;;;;;7.75;4.50;;;;;;;9.60;100.00;101125.94;5064086;28;20481;-51
2022/12/26 06:16:43;;;;;;;5.95;4.53;;;;;;;9.59;100.00;101124.22;5072336;28;20412;-53
2022/12/26 06:19:08;;;;;;;5.90;4.63;;;;;;;9.61;100.00;101140.53;5070127;28;20537;-52
2022/12/26 06:21:34;;;;;;;7.50;4.78;;;;;;;9.58;100.00;101143.84;5070748;28;20109;-49
2022/12/26 06:24:00;;;;;;;6.25;4.63;;;;;;;9.61;100.00;101149.09;5066967;28;20028;-52
2022/12/26 06:26:25;;;;;;;5.82;4.53;;;;;;;9.59;100.00;101139.63;5069211;28;20036;-44
2022/12/26 06:28:51;;;;;;;5.57;4.60;;;;;;;9.57;100.00;101142.09;5068946;28;20082;-51
2022/12/26 06:31:21;;;;;;;7.35;4.47;;;;;;;9.59;100.00;101140.50;5069670;28;20036;-51
2022/12/26 06:33:49;;;;;;;6.00;4.32;;;;;;;9.57;100.00;101152.38;5067645;28;20043;-52
2022/12/26 06:36:20;;;;;;;5.40;4.43;;;;;;;9.54;100.00;101149.72;5068390;28;20209;-52
2022/12/26 06:38:46;;;;;;;5.85;4.15;;;;;;;9.54;100.00;101153.97;5065403;28;20043;-52
2022/12/26 06:41:15;;;;;;;6.15;4.35;;;;;;;9.57;100.00;101166.91;5071502;28;20040;-49
2022/12/26 06:43:41;;;;;;;5.53;3.95;;;;;;;9.57;100.00;101162.63;5070728;28;20553;-51
2022/12/26 06:46:13;;;;;;;5.85;4.25;;;;;;;9.54;100.00;101165.09;5068337;28;20100;-46
2022/12/26 06:48:39;;;;;;;4.95;4.03;;;;;;;9.56;100.00;101163.47;5073227;28;20472;-52
2022/12/26 06:51:07;;;;;;;5.13;3.92;;;;;;;9.54;100.00;101167.69;5068135;28;20036;-43
2022/12/26 06:53:33;;;;;;;6.57;4.10;;;;;;;9.54;100.00;101152.28;5077374;28;20491;-52
2022/12/26 06:56:07;;;;;;;4.93;3.38;;;;;;;9.54;100.00;101149.72;5067669;28;20029;-52
2022/12/26 06:58:32;;;;;;;6.25;3.78;;;;;;;9.54;100.00;101148.84;5071217;28;20451;-52
2022/12/26 07:01:08;;;;;;;4.40;3.45;;;;;;;9.55;100.00;101148.88;5061992;28;20059;-53
2022/12/26 07:03:34;;;;;;;5.47;3.78;;;;;;;9.50;100.00;101149.53;5070410;28;20111;-50
2022/12/26 07:06:10;;;;;;;5.57;3.50;;;;;;;9.54;100.00;101148.84;5064525;28;20134;-52
2022/12/26 07:08:36;;;;;;;7.05;3.55;;;;;;;9.47;100.00;101147.75;5066790;28;20048;-48
2022/12/26 07:11:02;;;;;;;5.38;3.45;;;;;;;9.52;100.00;101150.44;5065316;28;20401;-53
2022/12/26 07:13:27;;;;;;;6.88;3.30;;;;;;;9.51;100.00;101148.72;5067003;28;20075;-52
2022/12/26 07:15:53;;;;;;;5.13;2.90;;;;;;;9.52;100.00;101161.59;5065303;28;20551;-51
2022/12/26 07:18:18;;;;;;;5.20;2.70;;;;;;;9.53;100.00;101159.94;5064637;28;20020;-52
2022/12/26 07:20:44;;;;;;;6.22;3.13;;;;;;;9.48;100.00;101162.31;5066562;28;20090;-52
2022/12/26 07:23:10;;;;;;;5.65;2.88;;;;;;;9.48;100.00;101161.44;5067799;28;20483;-52
2022/12/26 07:25:36;;;;;;;6.38;2.92;;;;;;;9.47;100.00;101155.44;5060460;28;20284;-51
2022/12/26 07:28:02;;;;;;;4.53;2.55;;;;;;;9.46;100.00;101165.63;5064359;28;20067;-53
2022/12/26 07:30:27;;;;;;;4.68;2.65;;;;;;;9.47;100.00;101175.09;5067481;28;20541;-51
2022/12/26 07:32:53;;;;;;;3.58;2.50;;;;;;;9.47;100.00;101168.28;5062723;28;20040;-52
2022/12/26 07:35:18;;;;;;;4.60;2.60;;;;;;;9.47;100.00;101177.66;5061052;28;20074;-54
2022/12/26 07:37:44;;;;;;;4.07;2.47;;;;;;;9.44;100.00;101187.81;5064413;28;20119;-51
2022/12/26 07:40:10;;;;;;;6.40;2.30;;;;;;;9.46;100.00;101186.16;5068532;28;20035;-52
2022/12/26 07:42:35;;;;;;;4.60;2.53;;;;;;;9.44;100.00;101186.09;5068677;28;20439;-51
2022/12/26 07:45:01;;;;;;;4.80;2.30;;;;;;;9.44;100.00;101191.25;5061489;28;20021;-47
2022/12/26 07:47:26;;;;;;;5.32;2.40;;;;;;;9.46;100.00;101202.44;5063176;28;20120;-50
2022/12/26 07:49:51;;;;;;;5.57;2.40;;;;;;;9.45;100.00;101204.94;5066417;28;20133;-52
2022/12/26 07:52:17;;;;;;;4.53;2.50;;;;;;;9.44;100.00;101198.94;5068017;28;20031;-50
2022/12/26 07:54:42;;;;;;;4.40;2.58;;;;;;;9.45;100.00;101189.53;5063306;28;20039;-48
2022/12/26 07:57:08;;;;;;;5.80;2.70;;;;;;;9.46;100.00;101193.88;5063314;28;20109;-52
2022/12/26 07:59:33;;;;;;;3.08;2.20;;;;;;;9.41;100.00;101188.59;5071909;28;20500;-52
2022/12/26 08:01:59;;;;;;;3.90;2.58;;;;;;;9.44;100.00;101191.25;5058375;28;20055;-47
2022/12/26 08:04:24;;;;;;;7.75;2.50;;;;;;;9.46;100.00;101199.88;5064356;28;20033;-53
2022/12/26 08:06:50;;;;;;;4.53;2.33;;;;;;;9.47;100.00;101206.78;5066523;28;20698;-49
2022/12/26 08:09:15;;;;;;;5.70;2.35;;;;;;;9.46;100.00;101201.56;5064341;28;20059;-53
2022/12/26 08:11:41;;;;;;;4.75;2.47;;;;;;;9.44;100.00;101201.50;5067477;28;20035;-48
2022/12/26 08:14:10;;;;;;;5.88;2.38;;;;;;;9.46;100.00;101194.72;5061404;28;20040;-53
2022/12/26 08:16:35;;;;;;;4.38;2.53;;;;;;;9.39;100.00;101197.88;5064251;28;20055;-52
2022/12/26 08:19:02;;;;;;;5.15;2.47;;;;;;;9.47;100.00;101198.19;5064846;28;20482;-53
2022/12/26 08:21:28;;;;;;;5.45;2.50;;;;;;;9.46;100.00;101194.72;5071681;28;20507;-50
2022/12/26 08:23:53;;;;;;;5.32;2.40;;;;;;;9.49;100.00;101189.72;5061709;28;20123;-52
2022/12/26 08:26:22;;;;;;;6.70;2.40;;;;;;;9.48;100.00;101193.13;5061596;28;20021;-56
2022/12/26 08:28:49;;;;;;;3.58;2.30;;;;;;;9.52;100.00;101199.22;5065964;28;20025;-54
2022/12/26 08:31:15;;;;;;;5.60;2.30;;;;;;;9.51;100.00;101200.03;5067908;28;20085;-51
2022/12/26 08:33:41;;;;;;;6.43;2.40;;;;;;;9.56;100.00;101195.97;5067472;28;20043;-53
2022/12/26 08:36:10;;;;;;;5.28;2.10;;;;;;;9.58;100.00;101200.31;5064218;28;20040;-47
2022/12/26 08:38:36;;;;;;;4.93;2.17;;;;;;;9.61;100.00;101207.28;5061211;28;20493;-52
2022/12/26 08:41:03;;;;;;;3.92;2.20;;;;;;;9.65;100.00;101204.91;5063312;28;20117;-52
2022/12/26 08:43:29;;;;;;;4.45;2.25;;;;;;;9.67;100.00;101203.25;5073391;28;20116;-53
2022/12/26 08:45:58;;;;;;;6.25;2.08;;;;;;;9.72;100.00;101212.81;5068479;28;20500;-53
2022/12/26 08:48:23;;;;;;;;;;;;;;;9.83;100.00;101209.84;5065667;28;20039;-52
2022/12/26 08:50:58;;;;;;;5.70;2.05;;;;;;;9.78;100.00;101207.91;5066397;28;19912;-52
2022/12/26 08:53:23;;;;;;;4.32;2.00;;;;;;;9.80;99.98;101213.97;5064563;28;20021;-47
2022/12/26 08:55:48;;;;;;;6.80;2.00;;;;;;;9.88;99.77;101220.25;5061088;28;20432;-51
2022/12/26 08:58:14;;;;;;;5.40;2.15;;;;;;;9.94;99.54;101225.63;5072409;28;20038;-50
2022/12/26 09:00:39;;;;;;;3.42;1.95;;;;;;;9.97;99.16;101227.44;5066535;28;20054;-55
2022/12/26 09:03:04;;;;;;;4.78;2.05;;;;;;;10.01;99.51;101222.47;5071802;28;20024;-48
2022/12/26 09:05:31;;;;;;;4.05;2.00;;;;;;;10.03;99.86;101230.22;5069250;28;20118;-52
2022/12/26 09:07:56;;;;;;;5.60;1.88;;;;;;;10.05;99.09;101241.44;5069138;28;20043;-52
2022/12/26 09:10:21;;;;;;;2.95;1.80;;;;;;;10.05;99.50;101244.88;5066156;28;20037;-50
2022/12/26 09:12:47;;;;;;;3.20;1.70;;;;;;;10.05;99.20;101247.44;5072214;28;20059;-50
2022/12/26 09:15:12;;;;;;;3.53;2.17;;;;;;;10.04;99.00;101237.97;5063153;28;20028;-51
2022/12/26 09:17:37;;;;;;;5.97;2.20;;;;;;;10.04;99.05;101237.97;5068958;28;20550;-50
2022/12/26 09:20:04;;;;;;;4.88;2.63;;;;;;;10.04;99.20;101242.25;5072352;28;20115;-51
2022/12/26 09:25:13;;;;;;;5.53;2.30;;;;;;;10.06;98.91;101249.19;5063108;28;20076;-55
2022/12/26 09:27:38;;;;;;;6.88;1.70;;;;;;;10.02;99.13;101252.47;5067506;28;20516;-53
2022/12/26 09:30:04;;;;;;;4.47;1.60;;;;;;;10.08;98.76;101260.41;5076301;28;20556;-46
2022/12/26 09:32:34;;;;;;;5.90;2.05;;;;;;;10.08;98.80;101275.81;5070640;28;20032;-52
2022/12/26 09:35:00;;;;;;;5.75;1.75;;;;;;;10.10;98.56;101265.59;5069326;28;20054;-51
2022/12/26 09:37:25;;;;;;;7.55;2.28;;;;;;;10.12;98.83;101271.66;5065983;28;20032;-51
2022/12/26 09:39:51;;;;;;;5.75;1.67;;;;;;;10.11;98.75;101283.63;5066708;28;20032;-48
2022/12/26 09:42:48;;;;;;;7.35;1.92;;;;;;;10.16;99.26;101271.84;5069336;28;20032;-50
2022/12/26 09:45:24;;;;;;;5.28;1.75;;;;;;;10.14;99.09;101278.63;5069542;28;20078;-54
2022/12/26 09:47:52;;;;;;;6.13;1.50;;;;;;;10.13;98.94;101291.38;5068830;28;20024;-57
2022/12/26 09:50:28;;;;;;;4.20;1.58;;;;;;;10.16;98.87;101289.81;5075966;28;20031;-52
2022/12/26 09:53:02;;;;;;;7.18;1.48;;;;;;;10.15;98.91;101295.78;5069383;28;20030;-51
2022/12/26 09:55:45;;;;;;;4.93;1.63;;;;;;;10.18;99.11;101297.56;5066476;28;20025;-52
2022/12/26 09:58:32;;;;;;;3.40;1.55;;;;;;;10.20;99.09;101296.84;5073004;28;20067;-48
2022/12/26 10:01:13;;;;;;;5.90;1.52;;;;;;;10.17;98.03;101291.56;5062226;28;20348;-51
2022/12/26 10:03:43;;;;;;;5.18;1.80;;;;;;;10.18;97.88;101295.00;5065694;28;20464;-51
2022/12/26 10:06:19;;;;;;;;;;;;;;;10.29;98.33;101298.00;5066318;28;20027;-52
2022/12/26 10:09:17;;;;;;;5.93;1.30;;;;;;;10.24;98.40;101302.09;5061390;28;19962;-51
2022/12/26 10:11:57;;;;;;;5.78;1.98;;;;;;;10.21;97.98;101308.84;5056970;28;20068;-50
2022/12/26 10:14:42;;;;;;;7.75;1.75;;;;;;;10.23;97.97;101310.59;5069241;28;20044;-52
2022/12/26 10:17:34;;;;;;;4.90;2.13;;;;;;;10.24;98.17;101312.38;5059030;28;20083;-52
2022/12/26 10:20:14;;;;;;;5.68;2.03;;;;;;;10.24;98.33;101327.81;5070008;28;20049;-51
2022/12/26 10:23:09;;;;;;;5.55;2.20;;;;;;;10.28;98.45;101325.41;5073782;28;20123;-49
2022/12/26 10:25:44;;;;;;;5.07;2.10;;;;;;;10.22;98.34;101350.84;5058257;28;20023;-44
2022/12/26 10:28:35;;;;;;;10.10;2.40;;;;;;;10.19;98.74;101376.41;5071461;28;20460;-52
2022/12/26 10:31:05;;;;;;;7.35;1.60;;;;;;;10.03;98.46;101385.25;5075062;28;20404;-52
2022/12/26 10:34:18;;;;;;;7.93;1.27;;;;;;;10.00;97.81;101390.25;5064190;28;20038;-50
2022/12/26 10:37:30;;;;;;;4.07;1.00;;;;;;;9.95;97.46;101396.94;5062461;28;20044;-51
2022/12/26 10:40:17;;;;;;;6.55;0.93;;;;;;;9.86;97.42;101394.88;5062551;28;20041;-52
2022/12/26 10:42:51;;;;;;;6.07;1.17;;;;;;;9.87;97.67;101390.59;5068508;28;20590;-52
2022/12/26 10:45:44;;;;;;;9.25;1.42;;;;;;;9.88;97.95;101397.50;5058183;28;20025;-51
2022/12/26 10:48:13;;;;;;;7.75;1.30;;;;;;;9.84;97.14;101391.38;5063478;28;20484;-52
2022/12/26 10:50:40;;;;;;;;;;;;;;;9.99;97.52;101400.50;5068850;28;20521;-45
2022/12/26 10:53:11;;;;;;;7.65;1.30;;;;;;;9.83;96.80;101406.75;5061073;28;19912;-49
2022/12/26 10:55:36;;;;;;;8.35;1.20;;;;;;;9.85;96.74;101412.81;5060843;28;20029;-51
2022/12/26 10:58:14;;;;;;;11.63;1.40;;;;;;;9.85;96.63;101420.50;5062450;28;20036;-49
2022/12/26 11:00:39;;;;;;;10.77;1.30;;;;;;;9.78;95.31;101423.66;5060040;28;20107;-49
2022/12/26 11:03:06;;;;;;;7.97;1.40;;;;;;;9.76;95.31;101430.41;5058519;28;20462;-48
2022/12/26 11:05:35;;;;;;;6.65;1.77;;;;;;;9.74;94.65;101439.75;5064315;28;20486;-52
2022/12/26 11:08:21;;;;;;;8.45;1.90;;;;;;;9.81;94.55;101439.16;5062202;28;20535;-50
2022/12/26 11:11:00;;;;;;;9.18;1.40;;;;;;;9.73;93.70;101446.56;5061928;28;20790;-57
2022/12/26 11:13:26;;;;;;;10.80;1.42;;;;;;;9.67;93.38;101436.06;5057390;28;20028;-55
2022/12/26 11:15:52;;;;;;;10.15;1.67;;;;;;;9.61;93.17;101453.78;5061767;28;20039;-55
2022/12/26 11:18:37;;;;;;;12.43;1.60;;;;;;;9.66;93.33;101460.84;5064985;28;20034;-53
2022/12/26 11:21:18;;;;;;;11.93;1.90;;;;;;;9.68;93.62;101463.47;5059409;28;20036;-53
2022/12/26 11:23:45;;;;;;;11.85;1.95;;;;;;;9.64;93.12;101465.03;5059935;28;20029;-50
2022/12/26 11:26:26;;;;;;;9.02;1.92;;;;;;;9.65;93.63;101471.94;5066132;28;20477;-51
2022/12/26 11:29:14;;;;;;;13.93;1.92;;;;;;;9.71;94.00;101463.63;5067868;28;20032;-54
2022/12/26 11:31:42;;;;;;;13.02;2.05;;;;;;;9.70;93.04;101463.53;5062679;28;20103;-53
2022/12/26 11:34:17;;;;;;;12.02;2.30;;;;;;;9.75;92.35;101462.03;5061608;28;20031;-53
2022/12/26 11:36:50;;;;;;;11.30;2.10;;;;;;;9.75;92.73;101474.88;5060681;28;20021;-52
2022/12/26 11:39:32;;;;;;;16.38;2.47;;;;;;;9.78;92.40;101481.03;5061761;28;20504;-54
2022/12/26 11:41:57;;;;;;;9.32;1.98;;;;;;;9.77;92.49;101469.00;5062187;28;20033;-53
2022/12/26 11:44:34;;;;;;;11.82;2.20;;;;;;;9.79;89.19;101482.78;5069089;28;20047;-50
2022/12/26 11:47:12;;;;;;;10.25;2.00;;;;;;;9.78;88.96;101486.16;5065546;28;20439;-54
2022/12/26 11:49:39;;;;;;;11.60;1.88;;;;;;;9.65;86.76;101497.63;5069083;28;20043;-53
2022/12/26 11:52:44;;;;;;;8.15;1.90;;;;;;;9.66;88.12;101496.81;5067839;28;20035;-49
2022/12/26 11:55:38;;;;;;;6.30;1.35;;;;;;;9.62;86.19;101500.03;5067643;28;20066;-53
2022/12/26 11:58:06;;;;;;;7.68;1.80;;;;;;;9.52;84.96;101502.16;5062384;28;20029;-54
2022/12/26 12:00:36;;;;;;;7.80;1.70;;;;;;;9.47;86.36;101512.25;5071824;28;20025;-51
2022/12/26 12:03:11;;;;;;;9.00;1.90;;;;;;;9.50;86.62;101509.81;5057478;28;20052;-52
2022/12/26 12:06:01;;;;;;;9.90;1.55;;;;;;;9.53;86.92;101517.66;5064050;28;20032;-54
2022/12/26 12:08:33;;;;;;;9.63;2.20;;;;;;;9.54;85.69;101523.66;5061288;28;20128;-53
2022/12/26 12:11:09;;;;;;;7.60;1.90;;;;;;;9.51;85.80;101520.94;5066903;28;20362;-52
2022/12/26 12:13:47;;;;;;;7.28;1.73;;;;;;;9.57;86.25;101522.06;5067817;28;20542;-55
2022/12/26 12:16:48;;;;;;;10.68;1.42;;;;;;;9.58;86.47;101517.81;5065848;28;20028;-50
2022/12/26 12:19:29;;;;;;;9.43;1.80;;;;;;;9.59;86.93;101528.19;5062469;28;20038;-49
2022/12/26 12:21:55;;;;;;;8.02;1.60;;;;;;;9.52;85.86;101526.13;5076041;28;20048;-56
2022/12/26 12:24:38;;;;;;;11.52;1.67;;;;;;;9.53;85.84;101522.78;5071515;28;20507;-49
2022/12/26 12:27:10;;;;;;;9.43;2.00;;;;;;;9.56;85.48;101512.63;5066114;28;20392;-55
2022/12/26 12:29:47;;;;;;;6.65;1.42;;;;;;;9.56;85.73;101519.44;5072290;28;20725;-57
2022/12/26 12:32:21;;;;;;;11.52;2.13;;;;;;;9.55;84.01;101517.69;5072359;28;20024;-52
2022/12/26 12:35:20;;;;;;;6.38;1.50;;;;;;;9.57;84.87;101527.22;5067866;28;20032;-51
2022/12/26 12:38:04;;;;;;;7.28;1.73;;;;;;;9.56;83.76;101533.16;5072984;28;20032;-50
2022/12/26 12:40:56;;;;;;;9.30;1.80;;;;;;;9.45;82.54;101530.94;5071214;28;20107;-53
2022/12/26 12:43:40;;;;;;;11.70;1.80;;;;;;;9.43;82.72;101537.72;5070351;28;20054;-53
2022/12/26 12:46:09;;;;;;;9.90;1.48;;;;;;;9.37;82.00;101539.19;5074851;28;20024;-49
2022/12/26 12:49:05;;;;;;;9.63;1.60;;;;;;;9.46;83.00;101541.28;5067650;28;20388;-54
2022/12/26 12:51:32;;;;;;;6.22;1.20;;;;;;;9.34;81.95;101551.00;5064332;28;20017;-49
2022/12/26 12:54:13;;;;;;;6.95;1.70;;;;;;;9.48;83.32;101549.94;5065219;28;20098;-55
2022/12/26 12:56:56;;;;;;;9.55;1.77;;;;;;;9.47;83.17;101552.44;5069180;28;20021;-53
2022/12/26 12:59:32;;;;;;;8.77;1.95;;;;;;;9.50;82.49;101560.28;5071403;28;20094;-52
2022/12/26 13:02:03;;;;;;;10.40;1.50;;;;;;;9.42;81.48;101562.50;5070337;28;20029;-48
2022/12/26 13:04:37;;;;;;;6.63;1.30;;;;;;;9.35;80.86;101563.06;5073248;28;20468;-53
2022/12/26 13:07:08;;;;;;;8.18;1.42;;;;;;;9.33;79.79;101562.09;5075488;28;20153;-47
2022/12/26 13:09:41;;;;;;;4.65;1.15;;;;;;;9.33;80.37;101559.53;5083432;28;20040;-52
2022/12/26 13:12:13;;;;;;;7.32;1.20;;;;;;;9.30;78.25;101570.53;5072814;28;20036;-48
2022/12/26 13:14:47;;;;;;;6.63;1.10;;;;;;;9.31;77.69;101566.28;5075042;28;20085;-50
2022/12/26 13:17:34;;;;;;;6.80;1.20;;;;;;;9.23;75.14;101575.34;5069211;28;20043;-51
2022/12/26 13:20:05;;;;;;;5.07;0.90;;;;;;;9.22;75.68;101573.56;5073257;28;20090;-51
2022/12/26 13:25:24;;;;;;;5.35;1.27;;;;;;;9.17;75.88;101564.81;5070924;28;20460;-52
2022/12/26 13:27:53;;;;;;;6.63;1.20;;;;;;;9.25;76.42;101558.31;5069353;28;20025;-53
2022/12/26 13:30:19;;;;;;;5.60;0.80;;;;;;;9.12;73.64;101562.03;5067813;28;20455;-49
2022/12/26 13:32:45;;;;;;;8.07;1.00;;;;;;;9.03;73.86;101570.16;5073305;28;20035;-51
2022/12/26 13:35:53;;;;;;;3.90;0.80;;;;;;;9.13;75.08;101579.16;5069472;28;20029;-55
2022/12/26 13:38:21;;;;;;;3.00;0.73;;;;;;;9.02;74.20;101588.94;5069260;28;20117;-57
2022/12/26 13:40:52;;;;;;;5.88;0.85;;;;;;;9.02;74.28;101588.94;5066544;28;20347;-55
2022/12/26 13:46:51;;;;;;;5.18;1.00;;;;;;;9.05;75.30;101595.91;5072822;28;20051;-50
2022/12/26 13:49:38;;;;;;;5.55;0.80;;;;;;;9.00;74.18;101608.53;5068882;28;20021;-53
2022/12/26 13:52:10;;;;;;;4.65;0.82;;;;;;;8.88;73.00;101613.09;5077731;28;20548;-52